Time;durP1;ratioP1;P1;durP2;ratioP2;P2;SDS_P1;SDS_P2;PMS_P1;PMS_P2;Temp;Humidity;BMP_temperature;BMP_pressure;BME280_temperature;BME280_humidity;BME280_pressure;Samples;Min_cycle;Max_cycle;Signal;HPM_P1;HPM_P2
2023/10/12 00:02:04;;;;;;;8.57;6.40;;;20.80;94.60;;;;;;5009868;28;20961;-66
2023/10/12 00:04:43;;;;;;;13.23;6.20;;;20.80;94.60;;;;;;5019067;28;20527;-66
2023/10/12 00:07:18;;;;;;;7.90;6.53;;;20.80;94.60;;;;;;5005178;28;20445;-66
2023/10/12 00:09:47;;;;;;;10.13;6.40;;;20.80;94.60;;;;;;5002903;28;21204;-66
2023/10/12 00:12:24;;;;;;;6.80;5.80;;;20.80;94.60;;;;;;4977882;28;20447;-66
2023/10/12 00:14:54;;;;;;;10.73;6.87;;;20.80;94.60;;;;;;5022202;28;20449;-66
2023/10/12 00:17:28;;;;;;;7.40;6.00;;;20.80;94.60;;;;;;5022994;28;20453;-66
2023/10/12 00:19:55;;;;;;;9.93;5.90;;;20.80;94.50;;;;;;5006990;28;20473;-65
2023/10/12 00:22:24;;;;;;;8.17;6.27;;;20.80;94.50;;;;;;5023170;28;20874;-66
2023/10/12 00:24:52;;;;;;;9.20;6.43;;;20.80;94.60;;;;;;5022139;28;20437;-66
2023/10/12 00:27:20;;;;;;;10.50;7.40;;;20.80;94.50;;;;;;4997797;28;20456;-66
2023/10/12 00:29:48;;;;;;;7.37;6.23;;;20.80;94.50;;;;;;5001894;28;20437;-66
2023/10/12 00:32:15;;;;;;;10.27;6.70;;;20.80;94.50;;;;;;5000123;28;20621;-66
2023/10/12 00:34:46;;;;;;;9.70;6.37;;;20.80;94.50;;;;;;5004461;28;20432;-66
2023/10/12 00:37:13;;;;;;;6.60;5.90;;;20.80;94.50;;;;;;5005597;28;21439;-66
2023/10/12 00:39:57;;;;;;;7.23;6.53;;;20.80;94.50;;;;;;5005292;28;20466;-66
2023/10/12 00:42:31;;;;;;;7.53;6.27;;;20.80;94.60;;;;;;5004108;28;20431;-66
2023/10/12 00:45:05;;;;;;;6.27;5.40;;;20.70;94.50;;;;;;5005219;28;20523;-66
2023/10/12 00:47:51;;;;;;;12.67;5.93;;;20.80;94.60;;;;;;5004122;28;20879;-66
2023/10/12 00:50:19;;;;;;;9.87;6.13;;;20.70;94.50;;;;;;5004738;28;20799;-66
2023/10/12 00:52:57;;;;;;;7.90;5.97;;;20.70;94.60;;;;;;5020185;28;20426;-65
2023/10/12 00:55:39;;;;;;;9.27;5.93;;;20.70;94.60;;;;;;5016985;28;21089;-66
2023/10/12 00:58:10;;;;;;;7.47;6.10;;;20.70;94.60;;;;;;4992286;28;20430;-65
2023/10/12 01:00:46;;;;;;;8.57;5.70;;;20.70;94.60;;;;;;5003546;28;20975;-66
2023/10/12 01:06:20;;;;;;;10.60;6.47;;;20.70;94.70;;;;;;4975648;28;20451;-66
2023/10/12 01:08:47;;;;;;;13.30;6.67;;;20.70;94.80;;;;;;4968966;28;20880;-66
2023/10/12 01:11:23;;;;;;;6.97;5.77;;;20.70;94.80;;;;;;4991267;28;20521;-66
2023/10/12 01:16:51;;;;;;;7.90;6.23;;;20.70;94.80;;;;;;5000042;28;20446;-66
2023/10/12 01:19:30;;;;;;;7.60;6.07;;;20.70;94.80;;;;;;4990309;28;20427;-66
2023/10/12 01:22:04;;;;;;;9.83;7.00;;;20.70;94.80;;;;;;4981223;28;20427;-65
2023/10/12 01:24:32;;;;;;;9.00;6.83;;;20.70;94.90;;;;;;5004070;28;20476;-66
2023/10/12 01:27:01;;;;;;;6.67;5.97;;;20.70;94.90;;;;;;5003642;28;20908;-66
2023/10/12 01:29:31;;;;;;;8.00;6.40;;;20.70;94.90;;;;;;4987795;28;20446;-66
2023/10/12 01:34:40;;;;;;;9.07;6.57;;;20.70;95.00;;;;;;5014441;28;20482;-68
2023/10/12 01:37:20;;;;;;;7.47;6.33;;;20.70;94.90;;;;;;4980163;28;20553;-66
2023/10/12 01:48:36;;;;;;;7.83;6.87;;;20.60;94.90;;;;;;4986621;28;20656;-68
2023/10/12 01:50:43;;;;;;;6.83;6.20;;;20.60;94.90;;;;;;5002269;28;20532;-68
2023/10/12 01:53:26;;;;;;;8.93;6.43;;;20.60;95.00;;;;;;5012677;28;20430;-69
2023/10/12 01:55:59;;;;;;;8.17;6.40;;;20.60;94.90;;;;;;4987837;28;20439;-69
2023/10/12 01:58:28;;;;;;;8.20;6.07;;;20.60;95.00;;;;;;5002321;28;20437;-69
2023/10/12 02:01:07;;;;;;;11.00;6.57;;;20.60;95.00;;;;;;4987412;28;20488;-69
2023/10/12 02:03:42;;;;;;;7.63;6.40;;;20.60;95.00;;;;;;4986571;28;20529;-69
2023/10/12 02:06:16;;;;;;;10.17;6.87;;;20.60;95.00;;;;;;5002210;28;20524;-69
2023/10/12 02:13:47;;;;;;;8.30;6.93;;;20.60;95.10;;;;;;4986796;28;20444;-69
2023/10/12 02:16:24;;;;;;;7.60;6.67;;;20.60;95.20;;;;;;5020758;28;20454;-69
2023/10/12 02:18:56;;;;;;;7.47;6.77;;;20.60;95.30;;;;;;5002440;28;20805;-69
2023/10/12 02:21:26;;;;;;;7.53;6.93;;;20.60;95.40;;;;;;5020916;28;21090;-68
2023/10/12 02:29:11;;;;;;;8.93;6.93;;;20.60;95.60;;;;;;4988033;28;20511;-69
2023/10/12 02:34:41;;;;;;;8.03;7.23;;;20.60;96.00;;;;;;5002369;28;20432;-69
2023/10/12 02:39:40;;;;;;;12.80;7.83;;;20.50;96.10;;;;;;4994511;28;20470;-69
2023/10/12 02:42:17;;;;;;;9.10;7.47;;;20.50;96.00;;;;;;4986757;28;20444;-69
2023/10/12 02:47:18;;;;;;;7.90;6.20;;;20.50;96.20;;;;;;5002431;28;20836;-68
2023/10/12 02:49:47;;;;;;;7.10;6.20;;;20.50;96.40;;;;;;5020139;28;20422;-68
2023/10/12 02:52:14;;;;;;;10.03;6.33;;;20.50;96.40;;;;;;5002427;28;21182;-69
2023/10/12 02:54:50;;;;;;;8.17;7.37;;;20.50;96.50;;;;;;5009840;28;20444;-68
2023/10/12 02:57:24;;;;;;;11.43;7.20;;;20.50;96.50;;;;;;4966847;28;20503;-69
2023/10/12 03:00:05;;;;;;;6.63;6.03;;;20.50;96.50;;;;;;4966058;28;21165;-69
2023/10/12 03:02:34;;;;;;;8.30;6.43;;;20.50;96.60;;;;;;4981969;28;20468;-69
2023/10/12 03:05:07;;;;;;;9.03;5.97;;;20.40;96.60;;;;;;4982768;28;21104;-68
2023/10/12 03:07:39;;;;;;;8.10;7.03;;;20.40;96.60;;;;;;4991390;28;20459;-68
2023/10/12 03:10:24;;;;;;;10.33;7.30;;;20.40;96.60;;;;;;5019749;28;20455;-68
2023/10/12 03:12:54;;;;;;;8.30;7.10;;;20.40;96.70;;;;;;5002210;28;20656;-69
2023/10/12 03:15:56;;;;;;;8.93;7.10;;;20.40;96.70;;;;;;5002246;28;20432;-69
2023/10/12 03:18:11;;;;;;;10.70;7.47;;;20.40;96.70;;;;;;4989796;28;20997;-68
2023/10/12 03:20:38;;;;;;;8.13;7.30;;;20.40;96.70;;;;;;4985445;28;20936;-69
2023/10/12 03:23:13;;;;;;;8.13;6.57;;;20.40;96.70;;;;;;4986339;28;20443;-69
2023/10/12 03:25:43;;;;;;;7.73;6.83;;;20.40;96.80;;;;;;4978602;28;20439;-68
2023/10/12 03:28:30;;;;;;;7.63;6.93;;;20.40;96.80;;;;;;5002246;28;20448;-69
2023/10/12 03:33:58;;;;;;;8.00;7.20;;;20.40;96.80;;;;;;4996350;28;20437;-69
2023/10/12 03:36:32;;;;;;;8.37;7.57;;;20.40;96.90;;;;;;5001406;28;20455;-68
2023/10/12 03:52:27;;;;;;;8.40;7.27;;;20.30;97.00;;;;;;5024315;28;20461;-69
2023/10/12 03:57:30;;;;;;;9.17;7.57;;;20.30;97.00;;;;;;5002285;28;20448;-68
2023/10/12 04:02:56;;;;;;;7.70;6.90;;;20.30;97.00;;;;;;4975953;28;20475;-69
2023/10/12 04:08:00;;;;;;;8.60;7.50;;;20.30;97.10;;;;;;5009014;28;20981;-69
2023/10/12 04:18:42;;;;;;;7.40;6.60;;;20.30;97.10;;;;;;5005716;28;20429;-69
2023/10/12 04:21:18;;;;;;;6.77;6.07;;;20.20;97.10;;;;;;5023528;28;20579;-69
2023/10/12 04:23:48;;;;;;;8.20;7.13;;;20.20;97.10;;;;;;4997100;28;20529;-69
2023/10/12 04:28:55;;;;;;;8.30;7.50;;;20.20;97.50;;;;;;5022715;28;20460;-69
2023/10/12 04:39:21;;;;;;;;;;;;;;;;;;;;;
2023/10/12 04:41:38;;;;;;;8.37;7.57;;;20.20;97.20;;;;;;5022465;28;20468;-68
2023/10/12 16:34:30;;;;;;;9.47;7.20;;;19.80;99.90;;;;;;5094078;23;21345;-74
2023/10/12 16:36:58;;;;;;;10.77;6.60;;;19.80;99.90;;;;;;4987210;28;20457;-73
2023/10/12 16:39:27;;;;;;;9.73;7.10;;;19.80;99.90;;;;;;4987099;28;20575;-78
2023/10/12 16:41:57;;;;;;;16.00;7.50;;;19.80;99.90;;;;;;4987002;28;20475;-72
2023/10/12 16:44:27;;;;;;;7.70;6.90;;;19.80;99.90;;;;;;4979832;28;20464;-74
2023/10/12 16:46:53;;;;;;;7.17;6.47;;;19.80;99.90;;;;;;4977667;28;20482;-72
2023/10/12 16:49:24;;;;;;;7.73;6.20;;;19.80;99.90;;;;;;4976431;28;20435;-73
2023/10/12 16:51:51;;;;;;;9.97;6.53;;;19.80;99.90;;;;;;4968621;28;20500;-73
2023/10/12 16:54:17;;;;;;;6.80;6.10;;;19.80;99.90;;;;;;4958724;28;20947;-73
2023/10/12 16:56:47;;;;;;;8.53;6.80;;;19.80;99.90;;;;;;4987647;28;20532;-73
2023/10/12 16:59:19;;;;;;;9.90;6.80;;;19.80;99.90;;;;;;4971418;28;20464;-72
2023/10/12 17:01:49;;;;;;;8.07;6.10;;;19.80;99.90;;;;;;4971974;28;20472;-73
2023/10/12 17:04:18;;;;;;;7.23;6.53;;;19.80;99.90;;;;;;4955857;28;20434;-75
2023/10/12 17:06:48;;;;;;;8.33;6.50;;;19.80;99.90;;;;;;4961696;28;20463;-70
2023/10/12 17:09:15;;;;;;;7.20;5.97;;;19.90;99.90;;;;;;4981734;28;21158;-73
2023/10/12 17:11:41;;;;;;;7.47;6.67;;;19.80;99.90;;;;;;4988146;28;20434;-75
2023/10/12 17:14:13;;;;;;;10.43;6.43;;;19.90;99.90;;;;;;4958265;28;20470;-72
2023/10/12 17:16:44;;;;;;;9.20;6.10;;;19.80;99.90;;;;;;4965104;28;20495;-73
2023/10/12 17:19:11;;;;;;;6.60;5.90;;;19.80;99.90;;;;;;4986874;28;20448;-69
2023/10/12 17:21:38;;;;;;;7.33;5.80;;;19.80;99.90;;;;;;4978679;28;20464;-73
2023/10/12 17:24:05;;;;;;;9.20;6.00;;;19.80;99.90;;;;;;4981466;28;20480;-71
2023/10/12 17:26:35;;;;;;;7.67;6.97;;;19.90;99.90;;;;;;4951693;28;20470;-78
2023/10/12 17:29:01;;;;;;;7.57;6.23;;;19.80;99.90;;;;;;4976752;28;20422;-72
2023/10/12 17:31:28;;;;;;;6.90;6.20;;;19.80;99.90;;;;;;4982247;28;20501;-72
2023/10/12 17:33:59;;;;;;;10.03;6.43;;;19.80;99.90;;;;;;4979534;28;21256;-72
2023/10/12 17:36:29;;;;;;;10.80;7.20;;;19.80;99.90;;;;;;5011539;28;20595;-72
2023/10/12 17:38:55;;;;;;;10.37;6.77;;;19.80;99.90;;;;;;4986126;28;20543;-72
2023/10/12 17:41:22;;;;;;;8.80;6.20;;;19.80;99.90;;;;;;4989932;28;20906;-72
2023/10/12 17:43:52;;;;;;;9.27;6.93;;;19.80;99.90;;;;;;4978832;28;20441;-73
2023/10/12 17:46:21;;;;;;;11.43;7.40;;;19.80;99.90;;;;;;4969452;28;20826;-72
2023/10/12 17:48:55;;;;;;;8.23;7.40;;;19.80;99.90;;;;;;4963278;28;20430;-72
2023/10/12 17:51:22;;;;;;;6.63;6.03;;;19.80;99.90;;;;;;5000104;28;20437;-72
2023/10/12 17:53:53;;;;;;;8.50;6.23;;;19.80;99.90;;;;;;4980856;28;20494;-74
2023/10/12 17:56:21;;;;;;;8.53;6.67;;;19.80;99.90;;;;;;4982304;28;20461;-73
2023/10/12 17:58:47;;;;;;;7.87;5.70;;;19.80;99.90;;;;;;4991522;28;21122;-74
2023/10/12 18:01:18;;;;;;;8.27;6.80;;;19.80;99.90;;;;;;4964815;28;21089;-74
2023/10/12 18:03:44;;;;;;;8.20;6.17;;;19.80;99.90;;;;;;4980735;28;20515;-74
2023/10/12 18:06:17;;;;;;;7.60;6.70;;;19.80;99.90;;;;;;5000823;28;20826;-74
2023/10/12 18:08:43;;;;;;;10.93;6.67;;;19.80;99.90;;;;;;4966290;28;20999;-74
2023/10/12 18:11:15;;;;;;;9.50;6.97;;;19.80;99.90;;;;;;5000510;28;20475;-74
2023/10/12 18:13:43;;;;;;;7.10;6.20;;;19.80;99.90;;;;;;4964200;28;20445;-74
2023/10/12 18:16:10;;;;;;;8.10;5.93;;;19.80;99.90;;;;;;4966376;28;20450;-74
2023/10/12 18:18:37;;;;;;;6.70;6.07;;;19.80;99.90;;;;;;4966282;28;20461;-74
2023/10/12 18:21:06;;;;;;;8.60;7.13;;;19.80;99.90;;;;;;4993335;28;20596;-73
2023/10/12 18:23:32;;;;;;;8.77;7.00;;;19.80;99.90;;;;;;5016584;28;21051;-74
2023/10/12 18:26:03;;;;;;;15.87;7.13;;;19.80;99.90;;;;;;4974248;28;20448;-74
2023/10/12 18:28:29;;;;;;;8.60;6.40;;;19.70;99.90;;;;;;4982131;28;20429;-74
2023/10/12 18:31:05;;;;;;;6.63;6.03;;;19.80;99.90;;;;;;4970292;28;20461;-75
2023/10/12 18:33:35;;;;;;;7.67;6.83;;;19.70;99.90;;;;;;4973925;28;21341;-76
2023/10/12 18:36:06;;;;;;;7.53;6.80;;;19.70;99.90;;;;;;4972494;28;20455;-77
2023/10/12 18:38:37;;;;;;;10.27;6.33;;;19.70;99.90;;;;;;4992278;28;20432;-77
2023/10/12 18:41:05;;;;;;;6.83;6.10;;;19.70;99.90;;;;;;4988202;28;20521;-77
2023/10/12 18:43:38;;;;;;;8.13;6.50;;;19.70;99.90;;;;;;4971168;28;20497;-77
2023/10/12 18:46:08;;;;;;;7.60;6.90;;;19.70;99.90;;;;;;4991018;28;20944;-76
2023/10/12 18:48:39;;;;;;;8.73;6.40;;;19.70;99.90;;;;;;4966523;28;20592;-76
2023/10/12 18:51:14;;;;;;;7.77;7.07;;;19.70;99.90;;;;;;4971766;28;21080;-77
2023/10/12 18:53:43;;;;;;;10.73;6.73;;;19.70;99.90;;;;;;4997192;28;21269;-77
2023/10/12 18:56:11;;;;;;;9.10;6.17;;;19.70;99.90;;;;;;4982717;28;20436;-76
2023/10/12 18:58:38;;;;;;;8.27;7.30;;;19.70;99.90;;;;;;4980222;28;20492;-76
2023/10/12 19:01:07;;;;;;;10.97;7.20;;;19.70;99.90;;;;;;4978416;28;20568;-76
2023/10/12 19:03:38;;;;;;;7.20;6.57;;;19.70;99.90;;;;;;4961963;28;20788;-76
2023/10/12 19:06:06;;;;;;;7.73;6.77;;;19.70;99.90;;;;;;4973335;28;20420;-74
2023/10/12 19:08:35;;;;;;;8.97;6.67;;;19.70;99.90;;;;;;4973545;28;20455;-75
2023/10/12 19:11:09;;;;;;;7.83;7.10;;;19.70;99.90;;;;;;4980750;28;21343;-75
2023/10/12 19:13:42;;;;;;;8.30;6.00;;;19.70;99.90;;;;;;4994590;28;20454;-75
2023/10/12 19:16:20;;;;;;;7.17;6.47;;;19.70;99.90;;;;;;4961050;28;20455;-75
2023/10/12 19:18:47;;;;;;;8.60;6.83;;;19.70;99.90;;;;;;4997974;28;20423;-75
2023/10/12 19:21:16;;;;;;;7.00;6.23;;;19.70;99.90;;;;;;4982722;28;21010;-75
2023/10/12 19:23:43;;;;;;;8.83;5.57;;;19.70;99.90;;;;;;4988731;28;21197;-75
2023/10/12 19:26:09;;;;;;;7.90;6.77;;;19.70;99.90;;;;;;4980942;28;20478;-75
2023/10/12 19:28:38;;;;;;;7.77;6.37;;;19.70;99.90;;;;;;4966942;28;20878;-75
2023/10/12 19:31:08;;;;;;;7.40;6.70;;;19.70;99.90;;;;;;4981505;28;20587;-76
2023/10/12 19:33:36;;;;;;;6.63;6.03;;;19.70;99.90;;;;;;4950063;28;20456;-74
2023/10/12 19:36:05;;;;;;;9.30;6.63;;;19.70;99.90;;;;;;4990153;28;20475;-74
2023/10/12 19:38:33;;;;;;;7.10;6.40;;;19.70;99.90;;;;;;4966082;28;20806;-74
2023/10/12 19:41:06;;;;;;;8.80;6.60;;;19.70;99.90;;;;;;4965273;28;20478;-74
2023/10/12 19:43:36;;;;;;;6.27;5.77;;;19.70;99.90;;;;;;4999126;28;20455;-74
2023/10/12 19:46:06;;;;;;;7.87;7.07;;;19.70;99.90;;;;;;4974474;28;20951;-74
2023/10/12 19:48:37;;;;;;;11.97;6.80;;;19.70;99.90;;;;;;4979088;28;20478;-74
2023/10/12 19:51:16;;;;;;;8.80;6.77;;;19.70;99.90;;;;;;4964113;28;20548;-74
2023/10/12 19:53:43;;;;;;;7.87;6.30;;;19.70;99.90;;;;;;4997580;28;20866;-74
2023/10/12 19:56:14;;;;;;;8.03;5.80;;;19.70;99.90;;;;;;4981837;28;21004;-74
2023/10/12 19:58:44;;;;;;;8.60;5.97;;;19.70;99.90;;;;;;4959872;28;20798;-74
2023/10/12 20:01:17;;;;;;;6.90;6.30;;;19.70;99.90;;;;;;4984011;28;20977;-74
2023/10/12 20:03:45;;;;;;;9.57;6.67;;;19.60;99.90;;;;;;4985507;28;20439;-71
2023/10/12 20:06:11;;;;;;;7.93;6.53;;;19.60;99.90;;;;;;4970832;28;20972;-72
2023/10/12 20:08:40;;;;;;;7.37;6.77;;;19.60;99.90;;;;;;4970369;28;20450;-72
2023/10/12 20:11:10;;;;;;;7.67;6.20;;;19.70;99.90;;;;;;4981922;28;20866;-72
2023/10/12 20:13:44;;;;;;;7.33;5.80;;;19.60;99.90;;;;;;4983431;28;20437;-72
2023/10/12 20:16:14;;;;;;;7.07;5.77;;;19.60;99.90;;;;;;4969516;28;20456;-72
2023/10/12 20:18:46;;;;;;;8.27;7.43;;;19.60;99.90;;;;;;4977046;28;20427;-72
2023/10/12 20:21:19;;;;;;;6.17;5.57;;;19.60;99.90;;;;;;4968781;28;20494;-70
2023/10/12 20:23:45;;;;;;;8.37;6.60;;;19.60;99.90;;;;;;4981623;28;20459;-72
2023/10/12 20:26:13;;;;;;;7.13;6.40;;;19.60;99.90;;;;;;5003704;28;20437;-71
2023/10/12 20:28:42;;;;;;;7.13;6.43;;;19.60;99.90;;;;;;4995977;28;20880;-70
2023/10/12 20:31:10;;;;;;;6.50;6.00;;;19.60;99.90;;;;;;4988569;28;20432;-70
2023/10/12 20:33:39;;;;;;;6.20;5.57;;;19.60;99.90;;;;;;4988003;28;20465;-71
2023/10/12 20:36:07;;;;;;;7.83;6.43;;;19.60;99.90;;;;;;4997860;28;20443;-70
2023/10/12 20:38:35;;;;;;;7.70;6.27;;;19.60;99.90;;;;;;4984858;28;20944;-70
2023/10/12 20:41:05;;;;;;;7.10;6.37;;;19.60;99.90;;;;;;4979536;28;20460;-69
2023/10/12 20:43:34;;;;;;;8.30;7.00;;;19.60;99.90;;;;;;4970655;28;20506;-69
2023/10/12 20:46:07;;;;;;;8.10;7.10;;;19.60;99.90;;;;;;4986990;28;20494;-69
2023/10/12 20:48:38;;;;;;;8.33;7.00;;;19.60;99.90;;;;;;4970544;28;20432;-69
2023/10/12 20:51:07;;;;;;;8.20;6.53;;;19.60;99.90;;;;;;4981238;28;21031;-69
2023/10/12 20:53:33;;;;;;;6.90;6.20;;;19.60;99.90;;;;;;4986015;28;21272;-69
2023/10/12 20:56:08;;;;;;;7.40;6.50;;;19.60;99.90;;;;;;4988011;28;20437;-69
2023/10/12 20:58:45;;;;;;;7.03;6.43;;;19.60;99.90;;;;;;4988344;28;20508;-69
2023/10/12 21:01:24;;;;;;;7.73;7.00;;;19.60;99.90;;;;;;5004424;28;20512;-69
2023/10/12 21:03:53;;;;;;;7.63;6.47;;;19.60;99.90;;;;;;5005266;28;20435;-69
2023/10/12 21:06:30;;;;;;;8.10;7.30;;;19.60;99.90;;;;;;5003741;28;20445;-69
2023/10/12 21:09:00;;;;;;;7.57;6.87;;;19.60;99.90;;;;;;4975064;28;20435;-69
2023/10/12 21:11:31;;;;;;;8.27;6.60;;;19.60;99.90;;;;;;4984442;28;20436;-69
2023/10/12 21:13:58;;;;;;;8.40;6.57;;;19.60;99.90;;;;;;4984801;28;20504;-69
2023/10/12 21:16:26;;;;;;;7.80;7.10;;;19.60;99.90;;;;;;4984450;28;20477;-69
2023/10/12 21:21:50;;;;;;;7.70;6.53;;;19.60;99.90;;;;;;4963695;28;21044;-69
2023/10/12 21:24:21;;;;;;;6.60;5.90;;;19.50;99.90;;;;;;4968513;28;20442;-69
2023/10/12 21:26:50;;;;;;;7.60;6.70;;;19.50;99.90;;;;;;4996602;28;20524;-69
2023/10/12 21:29:19;;;;;;;8.03;6.63;;;19.50;99.90;;;;;;5002757;28;20469;-69
2023/10/12 21:31:51;;;;;;;7.90;6.40;;;19.50;99.90;;;;;;5001608;28;20517;-69
2023/10/12 21:34:26;;;;;;;8.13;6.47;;;19.60;99.90;;;;;;5001343;28;20504;-69
2023/10/12 21:36:54;;;;;;;8.00;7.03;;;19.50;99.90;;;;;;4975930;28;21168;-69
2023/10/12 21:39:41;;;;;;;7.07;6.40;;;19.50;99.90;;;;;;4967740;28;20437;-69
2023/10/12 21:42:11;;;;;;;7.23;6.53;;;19.50;99.90;;;;;;4995216;28;20460;-70
2023/10/12 21:44:42;;;;;;;7.00;6.10;;;19.50;99.90;;;;;;4978937;28;20444;-69
2023/10/12 21:47:13;;;;;;;7.07;6.37;;;19.60;99.90;;;;;;4988470;28;20582;-69
2023/10/12 21:49:40;;;;;;;7.30;6.70;;;19.50;99.90;;;;;;4960226;28;20449;-69
2023/10/12 21:52:12;;;;;;;7.20;6.60;;;19.50;99.90;;;;;;4968578;28;20475;-70
2023/10/12 21:54:38;;;;;;;7.20;6.50;;;19.50;99.90;;;;;;5001727;28;20418;-70
2023/10/12 21:57:09;;;;;;;8.77;6.30;;;19.60;99.90;;;;;;5001716;28;20532;-70
2023/10/12 21:59:38;;;;;;;6.60;5.83;;;19.50;99.90;;;;;;5001439;28;20759;-69
2023/10/12 22:02:04;;;;;;;6.87;6.30;;;19.50;99.90;;;;;;4962851;28;21074;-70
2023/10/12 22:04:34;;;;;;;7.50;6.80;;;19.50;99.90;;;;;;4996813;28;20535;-70
2023/10/12 22:07:11;;;;;;;7.93;6.17;;;19.50;99.90;;;;;;4967196;28;20460;-69
2023/10/12 22:09:43;;;;;;;7.73;6.43;;;19.50;99.90;;;;;;5001266;28;21151;-69
2023/10/12 22:12:13;;;;;;;6.50;6.00;;;19.50;99.90;;;;;;5000469;28;21069;-70
2023/10/12 22:14:51;;;;;;;9.30;6.63;;;19.50;99.90;;;;;;4983210;28;20532;-69
2023/10/12 22:17:17;;;;;;;6.50;5.90;;;19.50;99.90;;;;;;4983505;28;20460;-69
2023/10/12 22:19:47;;;;;;;7.40;6.67;;;19.50;99.90;;;;;;5000418;28;20639;-70
2023/10/12 22:22:18;;;;;;;7.13;6.47;;;19.60;99.90;;;;;;4967364;28;20839;-69
2023/10/12 22:24:44;;;;;;;7.20;6.60;;;19.60;99.90;;;;;;4981599;28;20543;-69
2023/10/12 22:27:12;;;;;;;7.17;6.07;;;19.50;99.90;;;;;;4967650;28;20543;-69
2023/10/12 22:29:43;;;;;;;7.13;6.50;;;19.50;99.90;;;;;;4966764;28;20538;-69
2023/10/12 22:32:12;;;;;;;6.60;6.00;;;19.50;99.90;;;;;;4983926;28;20455;-69
2023/10/12 22:34:41;;;;;;;7.10;6.40;;;19.50;99.90;;;;;;4999548;28;20507;-69
2023/10/12 22:37:11;;;;;;;8.20;5.87;;;19.50;99.90;;;;;;4982829;28;20461;-70
2023/10/12 22:39:48;;;;;;;7.50;6.83;;;19.50;99.90;;;;;;5000217;28;21158;-69
2023/10/12 22:42:17;;;;;;;6.33;5.73;;;19.50;99.90;;;;;;4976284;28;20503;-69
2023/10/12 22:44:43;;;;;;;6.73;5.90;;;19.50;99.90;;;;;;4982745;28;20457;-68
2023/10/12 22:47:13;;;;;;;6.93;5.90;;;19.50;99.90;;;;;;4982417;28;20450;-68
2023/10/12 22:49:39;;;;;;;8.00;5.87;;;19.50;99.90;;;;;;4982573;28;20436;-68
2023/10/12 22:52:09;;;;;;;5.57;5.17;;;19.50;99.90;;;;;;4966179;28;20884;-69
2023/10/12 22:54:36;;;;;;;6.63;6.03;;;19.50;99.90;;;;;;4982697;28;20516;-68
2023/10/12 22:57:04;;;;;;;6.80;6.17;;;19.50;99.90;;;;;;5000740;28;20490;-68
2023/10/12 22:59:31;;;;;;;6.33;5.73;;;19.50;99.90;;;;;;4999641;28;21005;-68
2023/10/12 23:01:57;;;;;;;7.30;5.73;;;19.50;99.90;;;;;;4999549;28;20463;-68
2023/10/12 23:04:26;;;;;;;7.37;6.63;;;19.50;99.90;;;;;;4999584;28;20457;-68
2023/10/12 23:06:53;;;;;;;7.63;6.20;;;19.50;99.90;;;;;;4964588;28;20468;-68
2023/10/12 23:09:23;;;;;;;6.67;6.07;;;19.50;99.90;;;;;;4983283;28;20417;-68
2023/10/12 23:11:54;;;;;;;6.90;6.20;;;19.50;99.90;;;;;;4967185;28;20454;-68
2023/10/12 23:14:29;;;;;;;7.10;6.40;;;19.50;99.90;;;;;;4966903;28;20520;-68
2023/10/12 23:16:57;;;;;;;6.47;5.87;;;19.50;99.90;;;;;;4983592;28;20445;-68
2023/10/12 23:22:32;;;;;;;7.23;5.80;;;19.50;99.90;;;;;;4997871;28;20947;-69
2023/10/12 23:24:59;;;;;;;8.33;5.50;;;19.50;99.90;;;;;;4980399;28;20689;-68
2023/10/12 23:27:30;;;;;;;7.43;5.90;;;19.50;99.90;;;;;;4996338;28;20484;-68
2023/10/12 23:29:56;;;;;;;6.90;6.23;;;19.50;99.90;;;;;;4983408;28;20474;-68
2023/10/12 23:32:22;;;;;;;6.83;6.17;;;19.50;99.90;;;;;;4974274;28;20506;-68
2023/10/12 23:34:58;;;;;;;6.53;5.93;;;19.50;99.90;;;;;;4994275;28;20451;-68
2023/10/12 23:37:55;;;;;;;6.90;6.20;;;19.50;99.90;;;;;;4998726;28;20499;-68
2023/10/12 23:40:26;;;;;;;6.40;5.80;;;19.50;99.90;;;;;;5015309;28;20462;-68
2023/10/12 23:42:54;;;;;;;7.33;6.17;;;19.40;99.90;;;;;;4998018;28;20427;-67
2023/10/12 23:45:35;;;;;;;6.70;6.13;;;19.50;99.90;;;;;;4949278;28;20445;-66
2023/10/12 23:48:17;;;;;;;7.17;6.47;;;19.50;99.90;;;;;;4961850;28;20809;-66
2023/10/12 23:51:02;;;;;;;8.07;6.00;;;19.40;99.90;;;;;;4989121;28;20517;-67
2023/10/12 23:53:39;;;;;;;7.73;6.00;;;19.50;99.90;;;;;;4980274;28;20435;-66
2023/10/12 23:56:14;;;;;;;6.83;5.90;;;19.40;99.90;;;;;;4996470;28;20442;-67
2023/10/12 23:58:41;;;;;;;6.30;5.73;;;19.40;99.90;;;;;;4999370;28;20428;-66
